createdAt,value
2023-03-16T00:02:21.991Z,6.90
2023-03-16T00:04:50.139Z,6.90
2023-03-16T00:07:18.022Z,8.70
2023-03-16T00:09:46.786Z,7.50
2023-03-16T00:12:16.852Z,8.40
2023-03-16T00:14:45.987Z,7.30
2023-03-16T00:17:19.241Z,10.60
2023-03-16T00:19:55.561Z,8.10
2023-03-16T00:22:27.692Z,8.70
2023-03-16T00:24:56.628Z,11.00
2023-03-16T00:27:24.940Z,9.30
2023-03-16T00:29:56.867Z,9.30
2023-03-16T00:32:28.559Z,10.80
2023-03-16T00:34:56.704Z,8.50
2023-03-16T00:37:25.330Z,7.10
2023-03-16T00:39:56.291Z,7.30
2023-03-16T00:42:27.919Z,7.40
2023-03-16T00:47:28.541Z,9.30
2023-03-16T00:49:56.436Z,8.30
2023-03-16T00:52:24.337Z,7.30
2023-03-16T00:54:53.241Z,7.60
2023-03-16T00:57:21.712Z,14.40
2023-03-16T00:59:49.546Z,6.60
2023-03-16T01:02:24.714Z,8.90
2023-03-16T01:04:54.569Z,10.10
2023-03-16T01:07:22.817Z,7.20
2023-03-16T01:09:52.459Z,9.10
2023-03-16T01:12:23.420Z,5.70
2023-03-16T01:14:51.329Z,9.00
2023-03-16T01:17:19.994Z,7.30
2023-03-16T01:19:47.953Z,10.30
2023-03-16T01:22:16.985Z,9.50
2023-03-16T01:24:45.361Z,7.40
2023-03-16T01:27:13.958Z,6.60
2023-03-16T01:29:43.666Z,6.90
2023-03-16T01:32:12.199Z,8.50
2023-03-16T01:34:41.544Z,7.40
2023-03-16T01:37:09.893Z,8.50
2023-03-16T01:39:48.156Z,7.00
2023-03-16T01:42:16.224Z,6.70
2023-03-16T01:44:55.231Z,11.10
2023-03-16T01:47:25.577Z,7.10
2023-03-16T01:49:55.030Z,10.20
2023-03-16T01:52:27.445Z,4.90
2023-03-16T01:54:57.220Z,7.70
2023-03-16T01:57:26.492Z,8.40
2023-03-16T01:59:55.352Z,7.20
2023-03-16T02:02:24.332Z,6.80
2023-03-16T02:05:02.176Z,6.60
2023-03-16T02:07:32.318Z,10.70
2023-03-16T02:10:05.396Z,6.50
2023-03-16T02:12:35.300Z,11.30
2023-03-16T02:15:04.665Z,10.10
2023-03-16T02:17:34.834Z,7.20
2023-03-16T02:20:11.896Z,9.80
2023-03-16T02:22:43.062Z,13.00
2023-03-16T02:25:11.183Z,10.30
2023-03-16T02:27:59.452Z,6.90
2023-03-16T02:30:27.558Z,11.00
2023-03-16T02:33:06.137Z,8.60
2023-03-16T02:35:34.241Z,12.20
2023-03-16T02:38:03.547Z,11.10
2023-03-16T02:40:34.858Z,12.70
2023-03-16T02:43:08.974Z,13.90
2023-03-16T02:45:40.828Z,13.80
2023-03-16T02:48:14.688Z,16.60
2023-03-16T02:50:46.957Z,14.40
2023-03-16T02:53:14.864Z,15.00
2023-03-16T02:55:46.472Z,17.60
2023-03-16T02:58:15.136Z,20.40
2023-03-16T03:00:43.162Z,21.50
2023-03-16T03:03:12.408Z,16.80
2023-03-16T03:05:40.668Z,13.90
2023-03-16T03:08:08.980Z,19.10
2023-03-16T03:10:38.334Z,17.80
2023-03-16T03:13:07.415Z,18.40
2023-03-16T03:15:36.152Z,22.30
2023-03-16T03:18:10.145Z,18.50
2023-03-16T03:20:38.179Z,23.00
2023-03-16T03:23:06.182Z,22.00
2023-03-16T03:25:36.427Z,24.20
2023-03-16T03:28:05.693Z,25.50
2023-03-16T03:30:34.667Z,29.50
2023-03-16T03:33:04.660Z,27.40
2023-03-16T03:35:33.689Z,28.60
2023-03-16T03:38:01.474Z,35.50
2023-03-16T03:40:35.322Z,34.60
2023-03-16T03:43:04.781Z,29.10
2023-03-16T03:45:34.197Z,30.10
2023-03-16T03:48:02.230Z,37.20
2023-03-16T03:50:30.457Z,30.00
2023-03-16T03:53:12.548Z,30.80
2023-03-16T03:56:01.488Z,31.40
2023-03-16T03:58:29.460Z,30.70
2023-03-16T04:00:57.344Z,29.50
2023-03-16T04:03:25.168Z,29.70
2023-03-16T04:05:54.486Z,26.60
2023-03-16T04:08:23.960Z,26.70
2023-03-16T04:10:55.742Z,26.40
2023-03-16T04:13:24.224Z,30.10
2023-03-16T04:15:58.632Z,30.40
2023-03-16T04:18:38.770Z,35.20
2023-03-16T04:21:08.738Z,34.10
2023-03-16T04:23:36.638Z,33.60
2023-03-16T04:26:06.156Z,31.50
2023-03-16T04:28:34.373Z,30.70
2023-03-16T04:33:49.733Z,36.10
2023-03-16T04:36:17.894Z,39.00
2023-03-16T04:38:46.420Z,44.00
2023-03-16T04:41:14.350Z,39.00
2023-03-16T04:43:55.157Z,28.10
2023-03-16T04:46:26.827Z,36.50
2023-03-16T04:48:58.455Z,38.20
2023-03-16T04:51:26.623Z,30.30
2023-03-16T04:54:21.327Z,31.80
2023-03-16T04:56:49.757Z,29.90
2023-03-16T04:59:31.955Z,26.90
2023-03-16T05:02:24.662Z,25.60
2023-03-16T05:04:52.780Z,32.70
2023-03-16T05:07:23.313Z,25.70
2023-03-16T05:09:53.749Z,22.70
2023-03-16T05:12:21.839Z,26.40
2023-03-16T05:14:56.516Z,23.20
2023-03-16T05:17:46.727Z,18.10
2023-03-16T05:20:16.388Z,26.10
2023-03-16T05:22:48.405Z,21.90
2023-03-16T05:25:24.443Z,23.20
2023-03-16T05:27:57.326Z,21.60
2023-03-16T05:30:37.087Z,24.80
2023-03-16T05:33:06.219Z,20.90
2023-03-16T05:35:38.412Z,17.70
2023-03-16T05:38:10.097Z,15.40
2023-03-16T05:40:44.139Z,19.80
2023-03-16T05:43:21.797Z,23.40
2023-03-16T05:45:55.859Z,22.20
2023-03-16T05:48:26.354Z,23.90
2023-03-16T05:50:55.904Z,18.30
2023-03-16T05:53:29.550Z,21.10
2023-03-16T05:56:02.374Z,21.30
2023-03-16T05:58:34.086Z,20.30
2023-03-16T06:01:06.059Z,20.60
2023-03-16T06:03:38.330Z,18.60
2023-03-16T06:06:07.979Z,21.40
2023-03-16T06:08:41.675Z,19.20
2023-03-16T06:11:11.692Z,22.20
2023-03-16T06:13:39.684Z,19.60
2023-03-16T06:16:13.788Z,22.70
2023-03-16T06:18:42.885Z,21.60
2023-03-16T06:21:11.304Z,20.50
2023-03-16T06:23:39.555Z,20.40
2023-03-16T06:26:08.644Z,26.80
2023-03-16T06:28:37.392Z,22.60
2023-03-16T06:31:06.144Z,25.20
2023-03-16T06:33:37.897Z,21.90
2023-03-16T06:36:06.492Z,19.90
2023-03-16T06:38:41.044Z,25.50
2023-03-16T06:41:14.799Z,27.00
2023-03-16T06:43:43.920Z,22.80
2023-03-16T06:46:12.355Z,24.70
2023-03-16T06:48:43.992Z,22.90
2023-03-16T06:51:13.533Z,23.30
2023-03-16T06:53:42.209Z,23.40
2023-03-16T06:56:10.205Z,28.50
2023-03-16T06:58:41.801Z,28.60
2023-03-16T07:01:10.201Z,25.30
2023-03-16T07:03:38.555Z,21.90
2023-03-16T07:06:16.508Z,26.90
2023-03-16T07:08:44.503Z,26.90
2023-03-16T07:11:14.936Z,22.70
2023-03-16T07:13:42.782Z,27.80
2023-03-16T07:16:11.922Z,32.20
2023-03-16T07:18:44.206Z,25.10
2023-03-16T07:21:12.968Z,24.90
2023-03-16T07:23:40.962Z,24.50
2023-03-16T07:26:09.870Z,25.90
2023-03-16T07:28:43.044Z,24.90
2023-03-16T07:31:11.191Z,23.50
2023-03-16T07:33:40.619Z,25.50
2023-03-16T07:36:10.988Z,23.30
2023-03-16T07:38:43.030Z,23.10
2023-03-16T07:41:12.704Z,26.80
2023-03-16T07:43:40.907Z,27.30
2023-03-16T07:46:13.785Z,27.50
2023-03-16T07:48:43.988Z,81.80
2023-03-16T07:51:13.213Z,30.60
2023-03-16T07:53:41.698Z,22.80
2023-03-16T07:56:29.693Z,42.50
2023-03-16T07:59:05.287Z,66.10
2023-03-16T08:01:34.498Z,25.70
2023-03-16T08:04:02.881Z,26.60
2023-03-16T08:06:31.118Z,22.50
2023-03-16T08:09:00.354Z,24.30
2023-03-16T08:11:32.422Z,22.10
2023-03-16T08:14:02.849Z,21.50
2023-03-16T08:16:45.975Z,23.60
2023-03-16T08:19:20.450Z,18.20
2023-03-16T08:22:01.164Z,22.90
2023-03-16T08:24:32.576Z,24.50
2023-03-16T08:27:02.032Z,59.40
2023-03-16T08:29:34.539Z,22.00
2023-03-16T08:32:03.740Z,23.00
2023-03-16T08:34:40.067Z,35.90
2023-03-16T08:37:09.880Z,46.30
2023-03-16T08:39:40.593Z,22.40
2023-03-16T08:42:10.237Z,26.40
2023-03-16T08:44:50.909Z,22.60
2023-03-16T08:47:19.469Z,25.80
2023-03-16T08:49:47.449Z,19.10
2023-03-16T08:52:16.793Z,19.70
2023-03-16T08:55:01.416Z,32.70
2023-03-16T08:57:34.758Z,23.20
2023-03-16T09:00:12.814Z,22.40
2023-03-16T09:02:41.826Z,19.20
2023-03-16T09:05:11.211Z,19.90
2023-03-16T09:07:39.581Z,19.90
2023-03-16T09:11:34.656Z,18.50
2023-03-16T09:14:02.833Z,19.60
2023-03-16T09:16:35.233Z,18.60
2023-03-16T09:19:03.612Z,18.80
2023-03-16T09:21:32.126Z,18.00
2023-03-16T09:24:00.561Z,20.60
2023-03-16T09:26:30.024Z,21.50
2023-03-16T09:28:58.207Z,21.30
2023-03-16T09:31:26.778Z,18.90
2023-03-16T09:33:55.892Z,16.80
2023-03-16T09:36:27.295Z,22.10
2023-03-16T09:38:55.515Z,19.40
2023-03-16T09:41:29.508Z,18.20
2023-03-16T09:44:04.882Z,17.50
2023-03-16T09:46:35.784Z,17.60
2023-03-16T09:49:04.096Z,24.10
2023-03-16T09:51:36.916Z,19.10
2023-03-16T09:54:19.956Z,18.80
2023-03-16T09:56:47.798Z,20.50
2023-03-16T09:59:19.092Z,16.50
2023-03-16T10:02:06.167Z,15.00
2023-03-16T10:04:37.990Z,16.20
2023-03-16T10:07:06.667Z,19.10
2023-03-16T10:09:38.339Z,15.70
2023-03-16T10:12:07.996Z,17.60
2023-03-16T10:14:41.624Z,17.70
2023-03-16T10:17:17.815Z,19.30
2023-03-16T10:19:58.165Z,16.30
2023-03-16T10:22:33.770Z,17.80
2023-03-16T10:25:22.613Z,14.30
2023-03-16T10:27:50.587Z,15.20
2023-03-16T10:30:23.052Z,15.40
2023-03-16T10:32:51.668Z,14.30
2023-03-16T10:35:31.817Z,12.10
2023-03-16T10:38:00.127Z,12.00
2023-03-16T10:40:31.419Z,14.60
2023-03-16T10:44:56.955Z,13.80
2023-03-16T10:47:25.347Z,11.60
2023-03-16T10:49:57.968Z,14.10
2023-03-16T10:52:25.870Z,12.00
2023-03-16T10:54:57.266Z,10.40
2023-03-16T10:57:33.560Z,10.60
2023-03-16T11:00:15.276Z,12.80
2023-03-16T11:02:44.135Z,13.80
2023-03-16T11:05:16.128Z,16.20
2023-03-16T11:07:50.717Z,18.80
2023-03-16T11:10:27.818Z,13.60
2023-03-16T11:13:02.478Z,12.60
2023-03-16T11:15:57.671Z,11.40
2023-03-16T11:18:27.382Z,13.10
2023-03-16T11:20:55.260Z,13.30
2023-03-16T11:23:29.634Z,15.20
2023-03-16T11:25:58.815Z,11.60
2023-03-16T11:28:34.377Z,12.60
2023-03-16T11:31:22.294Z,18.50
2023-03-16T11:33:50.287Z,12.20
2023-03-16T11:36:28.101Z,10.90
2023-03-16T11:39:15.191Z,11.30
2023-03-16T11:42:06.395Z,14.20
2023-03-16T11:44:39.019Z,12.30
2023-03-16T11:49:56.019Z,11.90
2023-03-16T11:53:06.370Z,16.20
2023-03-16T11:55:34.949Z,12.90
2023-03-16T11:58:08.835Z,12.80
2023-03-16T12:00:40.834Z,14.60
2023-03-16T12:03:27.899Z,14.70
2023-03-16T12:06:23.430Z,12.20
2023-03-16T12:08:54.773Z,12.50
2023-03-16T12:11:31.033Z,12.50
2023-03-16T12:14:19.063Z,12.60
2023-03-16T12:16:49.983Z,12.60
2023-03-16T12:19:47.168Z,14.80
2023-03-16T12:22:17.274Z,13.90
2023-03-16T12:24:47.101Z,13.10
2023-03-16T12:27:17.693Z,14.30
2023-03-16T12:30:03.901Z,12.90
2023-03-16T12:32:42.243Z,13.10
2023-03-16T12:35:22.507Z,13.50
2023-03-16T12:37:53.814Z,16.60
2023-03-16T12:40:22.285Z,13.40
2023-03-16T12:42:53.313Z,17.10
2023-03-16T12:45:31.862Z,14.90
2023-03-16T12:48:04.221Z,16.70
2023-03-16T12:50:33.099Z,12.00
2023-03-16T12:53:02.130Z,13.00
2023-03-16T12:55:33.622Z,11.50
2023-03-16T12:58:02.129Z,15.30
2023-03-16T13:00:35.881Z,18.10
2023-03-16T13:03:04.294Z,16.70
2023-03-16T13:05:34.706Z,15.20
2023-03-16T13:08:10.794Z,13.20
2023-03-16T13:10:38.762Z,20.90
2023-03-16T13:13:07.610Z,16.00
2023-03-16T13:15:35.458Z,16.90
2023-03-16T13:18:10.584Z,14.60
2023-03-16T13:20:57.273Z,16.40
2023-03-16T13:23:27.514Z,19.20
2023-03-16T13:26:03.290Z,12.70
2023-03-16T13:28:32.799Z,17.20
2023-03-16T13:31:02.378Z,15.80
2023-03-16T13:33:31.598Z,16.10
2023-03-16T13:36:01.296Z,13.10
2023-03-16T13:38:30.445Z,12.30
2023-03-16T13:41:01.863Z,13.60
2023-03-16T13:43:31.963Z,15.00
2023-03-16T13:45:59.959Z,13.50
2023-03-16T13:48:28.014Z,12.10
2023-03-16T13:50:58.850Z,13.20
2023-03-16T13:53:30.394Z,11.80
2023-03-16T13:56:02.904Z,10.40
2023-03-16T13:58:35.589Z,14.30
2023-03-16T14:01:26.141Z,10.30
2023-03-16T14:04:11.920Z,9.50
2023-03-16T14:06:41.398Z,14.00
2023-03-16T14:09:15.835Z,8.90
2023-03-16T14:11:44.748Z,8.40
2023-03-16T14:14:21.829Z,4.90
2023-03-16T14:16:50.069Z,4.20
2023-03-16T14:19:20.651Z,3.20
2023-03-16T14:21:50.135Z,4.00
2023-03-16T14:24:24.258Z,6.30
2023-03-16T14:26:52.474Z,4.70
2023-03-16T14:29:25.006Z,6.20
2023-03-16T14:31:53.046Z,3.70
2023-03-16T14:34:21.428Z,5.30
2023-03-16T14:36:49.448Z,3.90
2023-03-16T14:39:24.372Z,3.80
2023-03-16T14:41:52.299Z,3.30
2023-03-16T14:44:24.199Z,3.60
2023-03-16T14:46:53.226Z,4.70
2023-03-16T14:49:33.787Z,3.90
2023-03-16T14:52:03.574Z,3.00
2023-03-16T14:54:31.764Z,5.10
2023-03-16T14:57:00.708Z,4.30
2023-03-16T14:59:28.762Z,4.10
2023-03-16T15:01:56.729Z,2.60
2023-03-16T15:04:32.265Z,5.20
2023-03-16T15:07:00.863Z,4.60
2023-03-16T15:09:32.737Z,3.90
2023-03-16T15:12:00.661Z,4.40
2023-03-16T15:14:47.330Z,4.60
2023-03-16T15:17:15.576Z,8.40
2023-03-16T15:19:44.778Z,5.30
2023-03-16T15:22:13.192Z,4.10
2023-03-16T15:24:45.348Z,5.90
2023-03-16T15:27:34.374Z,7.20
2023-03-16T15:30:02.485Z,4.30
2023-03-16T15:32:30.910Z,9.20
2023-03-16T15:34:58.827Z,11.20
2023-03-16T15:37:32.840Z,9.70
2023-03-16T15:40:00.896Z,5.80
2023-03-16T15:42:28.886Z,14.00
2023-03-16T15:44:57.229Z,9.70
2023-03-16T15:47:25.453Z,12.10
2023-03-16T15:50:01.906Z,11.60
2023-03-16T15:52:33.882Z,17.80
2023-03-16T15:55:07.832Z,17.10
2023-03-16T15:57:37.542Z,10.90
2023-03-16T16:00:07.264Z,9.90
2023-03-16T16:02:38.774Z,16.90
2023-03-16T16:05:09.256Z,9.80
2023-03-16T16:07:42.487Z,14.50
2023-03-16T16:10:12.774Z,11.60
2023-03-16T16:12:40.698Z,10.10
2023-03-16T16:15:17.809Z,7.40
2023-03-16T16:18:07.475Z,4.90
2023-03-16T16:20:34.823Z,6.80
2023-03-16T16:23:03.329Z,7.00
2023-03-16T16:25:41.466Z,6.60
2023-03-16T16:28:15.859Z,7.80
2023-03-16T16:30:44.192Z,8.10
2023-03-16T16:33:21.961Z,7.40
2023-03-16T16:35:50.085Z,4.80
2023-03-16T16:38:18.126Z,5.80
2023-03-16T16:40:46.299Z,5.60
2023-03-16T16:43:24.283Z,8.60
2023-03-16T16:45:52.565Z,5.30
2023-03-16T16:48:32.452Z,5.40
2023-03-16T16:51:00.651Z,4.60
2023-03-16T16:53:29.574Z,6.60
2023-03-16T16:55:57.472Z,6.10
2023-03-16T16:58:26.058Z,7.10
2023-03-16T17:00:55.126Z,6.10
2023-03-16T17:03:24.208Z,6.40
2023-03-16T17:05:52.274Z,17.40
2023-03-16T17:09:23.394Z,3.20
2023-03-16T17:11:56.178Z,6.00
2023-03-16T17:14:27.691Z,8.50
2023-03-16T17:17:02.477Z,5.60
2023-03-16T17:19:32.870Z,6.70
2023-03-16T17:22:01.614Z,5.60
2023-03-16T17:24:29.726Z,8.20
2023-03-16T17:26:58.976Z,4.80
2023-03-16T17:29:33.269Z,6.90
2023-03-16T17:32:03.908Z,6.00
2023-03-16T17:34:32.382Z,4.40
2023-03-16T17:37:08.453Z,6.90
2023-03-16T17:39:39.617Z,8.20
2023-03-16T17:42:10.881Z,6.90
2023-03-16T17:44:43.129Z,4.60
2023-03-16T17:47:14.983Z,5.60
2023-03-16T17:49:45.001Z,6.80
2023-03-16T17:52:13.873Z,4.30
2023-03-16T17:54:42.171Z,5.90
2023-03-16T17:57:13.513Z,4.90
2023-03-16T17:59:41.711Z,4.60
2023-03-16T18:02:25.805Z,3.20
2023-03-16T18:04:53.822Z,3.30
2023-03-16T18:07:22.109Z,5.30
2023-03-16T18:10:14.343Z,4.50
2023-03-16T18:12:42.689Z,5.60
2023-03-16T18:15:16.357Z,3.50
2023-03-16T18:17:44.642Z,5.40
2023-03-16T18:20:34.713Z,5.20
2023-03-16T18:23:10.229Z,4.60
2023-03-16T18:25:40.971Z,4.20
2023-03-16T18:28:09.845Z,3.30
2023-03-16T18:30:38.560Z,3.60
2023-03-16T18:33:12.880Z,2.30
2023-03-16T18:35:41.686Z,3.60
2023-03-16T18:38:20.455Z,2.90
2023-03-16T18:40:49.427Z,4.40
2023-03-16T18:43:17.736Z,3.20
2023-03-16T18:45:46.557Z,2.60
2023-03-16T18:48:19.333Z,4.50
2023-03-16T18:50:47.223Z,2.00
2023-03-16T18:53:16.097Z,3.60
2023-03-16T18:55:45.100Z,5.50
2023-03-16T18:58:15.201Z,1.80
2023-03-16T19:00:44.787Z,3.80
2023-03-16T19:03:23.595Z,4.10
2023-03-16T19:05:52.150Z,1.40
2023-03-16T19:08:20.074Z,3.90
2023-03-16T19:10:56.469Z,4.40
2023-03-16T19:13:25.109Z,3.70
2023-03-16T19:15:53.687Z,2.20
2023-03-16T19:18:24.800Z,8.20
2023-03-16T19:20:52.640Z,3.00
2023-03-16T19:23:23.567Z,1.60
2023-03-16T19:25:51.647Z,3.20
2023-03-16T19:28:34.056Z,1.60
2023-03-16T19:31:02.878Z,2.60
2023-03-16T19:33:30.847Z,3.30
2023-03-16T19:35:59.515Z,1.70
2023-03-16T19:38:27.686Z,2.80
2023-03-16T19:40:56.420Z,3.10
2023-03-16T19:43:24.846Z,4.20
2023-03-16T19:45:52.786Z,1.90
2023-03-16T19:48:25.146Z,1.50
2023-03-16T19:50:52.991Z,1.30
2023-03-16T19:53:22.657Z,3.50
2023-03-16T19:55:51.888Z,1.80
2023-03-16T19:58:21.349Z,3.20
2023-03-16T20:00:49.681Z,1.10
2023-03-16T20:03:18.303Z,1.30
2023-03-16T20:05:46.592Z,1.80
2023-03-16T20:08:19.419Z,3.80
2023-03-16T20:10:48.104Z,0.90
2023-03-16T20:13:47.569Z,2.00
2023-03-16T20:16:16.976Z,0.90
2023-03-16T20:18:45.122Z,1.70
2023-03-16T20:21:14.725Z,0.90
2023-03-16T20:23:42.623Z,1.50
2023-03-16T20:26:15.790Z,1.80
2023-03-16T20:28:43.577Z,1.00
2023-03-16T20:31:16.568Z,0.50
2023-03-16T20:33:44.566Z,0.90
2023-03-16T20:36:12.821Z,0.60
2023-03-16T20:38:47.369Z,1.60
2023-03-16T20:41:25.537Z,0.60
2023-03-16T20:43:54.426Z,0.50
2023-03-16T20:46:23.934Z,0.40
2023-03-16T20:48:52.275Z,1.10
2023-03-16T20:51:20.026Z,1.00
2023-03-16T20:53:47.982Z,0.70
2023-03-16T20:56:20.290Z,0.70
2023-03-16T20:58:50.056Z,1.90
2023-03-16T21:01:18.932Z,0.60
2023-03-16T21:03:52.136Z,0.70
2023-03-16T21:06:23.632Z,0.50
2023-03-16T21:08:52.079Z,0.40
2023-03-16T21:11:34.510Z,0.80
2023-03-16T21:14:02.630Z,0.60
2023-03-16T21:16:30.555Z,0.70
2023-03-16T21:18:59.250Z,0.50
2023-03-16T21:21:27.706Z,0.80
2023-03-16T21:23:55.576Z,1.90
2023-03-16T21:26:23.986Z,0.60
2023-03-16T21:28:56.658Z,0.80
2023-03-16T21:31:24.616Z,1.30
2023-03-16T21:33:53.934Z,0.70
2023-03-16T21:36:22.529Z,0.90
2023-03-16T21:38:51.671Z,0.50
2023-03-16T21:41:19.851Z,0.80
2023-03-16T21:43:51.769Z,1.10
2023-03-16T21:46:20.797Z,0.60
2023-03-16T21:48:49.650Z,1.60
2023-03-16T21:51:21.083Z,0.70
2023-03-16T21:53:49.412Z,0.50
2023-03-16T21:56:22.824Z,1.10
2023-03-16T21:58:50.747Z,0.40
2023-03-16T22:01:27.744Z,1.00
2023-03-16T22:03:57.655Z,1.40
2023-03-16T22:06:25.790Z,0.20
2023-03-16T22:08:54.996Z,1.00
2023-03-16T22:11:29.462Z,1.60
2023-03-16T22:13:57.943Z,1.60
2023-03-16T22:16:26.426Z,0.60
2023-03-16T22:18:58.067Z,0.90
2023-03-16T22:21:37.643Z,0.60
2023-03-16T22:24:07.555Z,1.30
2023-03-16T22:26:37.471Z,0.80
2023-03-16T22:29:28.444Z,1.60
2023-03-16T22:32:03.096Z,0.50
2023-03-16T22:34:39.544Z,0.70
2023-03-16T22:37:08.744Z,0.70
2023-03-16T22:39:37.843Z,0.80
2023-03-16T22:42:26.202Z,3.30
2023-03-16T22:44:54.967Z,2.10
2023-03-16T22:47:26.327Z,1.20
2023-03-16T22:49:54.092Z,0.50
2023-03-16T22:52:22.906Z,0.80
2023-03-16T22:54:50.678Z,0.60
2023-03-16T22:57:18.656Z,0.70
2023-03-16T22:59:46.497Z,0.80
2023-03-16T23:02:15.117Z,0.80
2023-03-16T23:04:43.067Z,1.20
2023-03-16T23:07:11.846Z,1.00
2023-03-16T23:09:40.136Z,0.50
2023-03-16T23:12:11.108Z,0.60
2023-03-16T23:14:40.207Z,1.50
2023-03-16T23:17:18.844Z,0.70
2023-03-16T23:19:48.058Z,1.50
2023-03-16T23:22:16.030Z,0.80
2023-03-16T23:24:43.860Z,1.40
2023-03-16T23:27:18.810Z,1.00
2023-03-16T23:29:46.729Z,0.70
2023-03-16T23:32:14.792Z,1.60
2023-03-16T23:34:43.590Z,0.40
2023-03-16T23:37:11.488Z,0.30
2023-03-16T23:39:39.943Z,0.70
2023-03-16T23:42:07.852Z,0.80
2023-03-16T23:44:37.791Z,0.20
2023-03-16T23:47:05.676Z,0.30
2023-03-16T23:49:40.002Z,0.20
2023-03-16T23:52:09.499Z,1.40
2023-03-16T23:54:37.252Z,0.30
2023-03-16T23:57:06.131Z,0.20
2023-03-16T23:59:34.292Z,0.70
